createdAt,value
2023-04-04T00:02:19.023Z,6.70
2023-04-04T00:07:21.419Z,9.30
2023-04-04T00:12:26.691Z,7.90
2023-04-04T00:17:30.423Z,10.50
2023-04-04T00:22:32.169Z,8.10
2023-04-04T00:27:33.865Z,7.00
2023-04-04T00:32:35.793Z,8.20
2023-04-04T00:37:38.137Z,6.20
2023-04-04T00:42:40.009Z,11.10
2023-04-04T00:47:43.599Z,8.60
2023-04-04T00:52:45.486Z,9.30
2023-04-04T00:57:48.052Z,9.10
2023-04-04T01:02:50.700Z,6.00
2023-04-04T01:07:52.772Z,21.70
2023-04-04T01:12:55.482Z,13.00
2023-04-04T01:18:01.895Z,17.00
2023-04-04T01:23:06.684Z,6.70
2023-04-04T01:28:09.751Z,13.90
2023-04-04T01:33:22.616Z,12.70
2023-04-04T01:38:35.484Z,9.30
2023-04-04T01:43:37.567Z,7.90
2023-04-04T01:48:39.850Z,15.50
2023-04-04T01:53:42.919Z,12.70
2023-04-04T01:58:44.886Z,11.90
2023-04-04T02:03:47.575Z,11.50
2023-04-04T02:08:49.382Z,13.20
2023-04-04T02:13:51.539Z,12.20
2023-04-04T02:18:54.026Z,10.20
2023-04-04T02:23:55.744Z,9.60
2023-04-04T02:28:57.419Z,12.00
2023-04-04T02:33:59.211Z,15.60
2023-04-04T02:39:01.159Z,16.80
2023-04-04T02:44:05.361Z,12.90
2023-04-04T02:49:07.413Z,11.70
2023-04-04T02:54:10.177Z,17.40
2023-04-04T02:59:15.130Z,19.70
2023-04-04T03:04:19.428Z,18.70
2023-04-04T03:09:21.199Z,18.00
2023-04-04T03:14:23.038Z,16.60
2023-04-04T03:19:25.009Z,21.20
2023-04-04T03:24:28.485Z,16.00
2023-04-04T03:29:30.130Z,15.90
2023-04-04T03:34:32.976Z,16.50
2023-04-04T03:39:35.376Z,11.90
2023-04-04T03:44:42.628Z,16.20
2023-04-04T03:49:51.537Z,21.10
2023-04-04T03:54:53.429Z,11.30
2023-04-04T03:59:55.091Z,12.40
2023-04-04T04:04:57.486Z,14.70
2023-04-04T04:09:59.553Z,9.80
2023-04-04T04:15:01.927Z,8.90
2023-04-04T04:20:10.332Z,11.60
2023-04-04T04:25:17.818Z,9.10
2023-04-04T04:30:26.923Z,11.60
2023-04-04T04:35:28.984Z,10.90
2023-04-04T04:40:31.801Z,14.70
2023-04-04T04:45:50.802Z,13.60
2023-04-04T04:50:55.042Z,11.90
2023-04-04T04:56:06.076Z,19.80
2023-04-04T05:01:09.429Z,10.50
2023-04-04T05:06:13.858Z,19.00
2023-04-04T05:11:15.951Z,14.00
2023-04-04T05:16:17.977Z,14.70
2023-04-04T05:21:20.877Z,10.20
2023-04-04T05:26:25.043Z,9.30
2023-04-04T05:31:29.000Z,11.60
2023-04-04T05:36:31.522Z,10.10
2023-04-04T05:41:37.636Z,17.00
2023-04-04T05:46:45.701Z,37.70
2023-04-04T05:51:47.646Z,10.10
2023-04-04T05:56:50.930Z,13.70
2023-04-04T06:02:01.367Z,27.60
2023-04-04T06:07:04.078Z,21.10
2023-04-04T06:12:30.639Z,21.10
2023-04-04T06:17:33.112Z,13.40
2023-04-04T06:22:35.498Z,12.30
2023-04-04T06:27:38.096Z,10.10
2023-04-04T06:32:42.471Z,10.40
2023-04-04T06:37:48.326Z,15.20
2023-04-04T06:42:57.914Z,8.10
2023-04-04T06:48:03.656Z,5.80
2023-04-04T06:53:08.623Z,4.90
2023-04-04T06:58:10.507Z,4.50
2023-04-04T07:03:12.276Z,19.60
2023-04-04T07:08:14.410Z,15.30
2023-04-04T07:13:16.768Z,15.70
2023-04-04T07:18:18.532Z,29.10
2023-04-04T07:23:20.257Z,17.00
2023-04-04T07:28:22.071Z,11.70
2023-04-04T07:33:23.776Z,5.30
2023-04-04T07:38:25.582Z,13.90
2023-04-04T07:43:27.361Z,12.10
2023-04-04T07:48:29.051Z,7.00
2023-04-04T07:53:49.458Z,11.20
2023-04-04T07:58:51.171Z,8.70
2023-04-04T08:03:53.760Z,11.90
2023-04-04T08:08:55.545Z,9.10
2023-04-04T08:13:57.188Z,6.40
2023-04-04T08:19:00.058Z,7.50
2023-04-04T08:24:02.001Z,4.40
2023-04-04T08:29:03.911Z,7.60
2023-04-04T08:34:07.803Z,7.10
2023-04-04T08:39:09.717Z,9.30
2023-04-04T08:44:20.435Z,5.20
2023-04-04T08:49:24.044Z,8.80
2023-04-04T08:54:26.575Z,8.30
2023-04-04T08:59:28.855Z,5.40
2023-04-04T09:04:31.853Z,6.90
2023-04-04T09:09:34.292Z,4.20
2023-04-04T09:14:39.220Z,6.90
2023-04-04T09:19:40.889Z,5.40
2023-04-04T09:24:43.803Z,4.40
2023-04-04T09:29:45.716Z,8.60
2023-04-04T09:34:47.978Z,4.60
2023-04-04T09:39:49.804Z,7.70
2023-04-04T09:44:55.001Z,2.90
2023-04-04T09:50:01.373Z,10.60
2023-04-04T09:55:05.304Z,15.80
2023-04-04T10:00:09.263Z,18.10
2023-04-04T10:05:11.395Z,6.70
2023-04-04T10:10:13.962Z,5.50
2023-04-04T10:15:16.478Z,9.70
2023-04-04T10:20:19.126Z,9.50
2023-04-04T10:25:20.784Z,3.00
2023-04-04T10:30:22.495Z,18.30
2023-04-04T10:35:25.513Z,6.80
2023-04-04T10:40:33.246Z,6.90
2023-04-04T10:45:38.725Z,8.00
2023-04-04T10:50:41.896Z,4.70
2023-04-04T10:55:46.316Z,10.50
2023-04-04T11:00:54.951Z,6.10
2023-04-04T11:06:01.782Z,6.70
2023-04-04T11:11:09.637Z,5.00
2023-04-04T11:16:19.296Z,4.50
2023-04-04T11:21:24.881Z,4.50
2023-04-04T11:26:26.600Z,8.50
2023-04-04T11:31:34.781Z,7.40
2023-04-04T11:36:44.361Z,6.00
2023-04-04T11:46:57.235Z,6.20
2023-04-04T11:51:58.962Z,7.00
2023-04-04T11:57:01.610Z,5.90
2023-04-04T12:02:09.110Z,7.10
2023-04-04T12:07:13.776Z,6.40
2023-04-04T12:12:16.472Z,6.10
2023-04-04T12:17:18.322Z,3.50
2023-04-04T12:22:20.995Z,6.00
2023-04-04T12:27:22.868Z,4.70
2023-04-04T12:32:24.778Z,6.60
2023-04-04T12:37:29.584Z,6.80
2023-04-04T12:42:32.005Z,3.80
2023-04-04T12:47:34.043Z,8.30
2023-04-04T12:52:39.669Z,6.70
2023-04-04T12:57:41.913Z,7.90
2023-04-04T13:02:46.630Z,4.50
2023-04-04T13:07:48.624Z,6.20
2023-04-04T13:13:01.090Z,4.90
2023-04-04T13:18:18.124Z,6.60
2023-04-04T13:23:21.514Z,7.40
2023-04-04T13:28:23.190Z,6.90
2023-04-04T13:33:24.889Z,13.60
2023-04-04T13:38:27.966Z,5.00
2023-04-04T13:43:29.689Z,5.80
2023-04-04T13:48:31.539Z,7.60
2023-04-04T13:53:33.237Z,12.20
2023-04-04T13:58:35.073Z,16.60
2023-04-04T14:03:37.324Z,14.00
2023-04-04T14:08:39.694Z,6.20
2023-04-04T14:13:41.838Z,9.00
2023-04-04T14:18:44.692Z,8.30
2023-04-04T14:23:47.199Z,8.30
2023-04-04T14:28:51.863Z,9.90
2023-04-04T14:33:54.557Z,4.60
2023-04-04T14:38:56.830Z,7.50
2023-04-04T14:43:59.294Z,7.30
2023-04-04T14:49:03.062Z,14.90
2023-04-04T14:54:05.186Z,9.00
2023-04-04T14:59:08.187Z,9.00
2023-04-04T15:04:11.479Z,14.50
2023-04-04T15:09:13.321Z,12.80
2023-04-04T15:14:14.967Z,10.80
2023-04-04T15:19:16.687Z,32.00
2023-04-04T15:24:18.454Z,12.30
2023-04-04T15:29:20.374Z,6.80
2023-04-04T15:34:22.035Z,8.60
2023-04-04T15:39:23.789Z,10.60
2023-04-04T15:44:25.758Z,5.70
2023-04-04T15:49:28.313Z,7.60
2023-04-04T15:54:31.985Z,14.10
2023-04-04T16:04:36.061Z,4.10
2023-04-04T16:09:37.723Z,13.70
2023-04-04T16:14:39.347Z,9.30
2023-04-04T16:19:41.374Z,13.20
2023-04-04T16:24:43.026Z,13.50
2023-04-04T16:29:44.787Z,14.30
2023-04-04T16:34:46.796Z,8.90
2023-04-04T16:39:48.998Z,9.20
2023-04-04T16:44:50.861Z,5.70
2023-04-04T16:49:52.557Z,9.50
2023-04-04T16:54:55.000Z,6.30
2023-04-04T16:59:57.265Z,9.50
2023-04-04T17:04:58.978Z,20.50
2023-04-04T17:10:01.128Z,15.40
2023-04-04T17:15:04.703Z,5.20
2023-04-04T17:20:07.378Z,14.00
2023-04-04T17:25:09.491Z,24.40
2023-04-04T17:30:12.854Z,5.90
2023-04-04T17:35:17.674Z,8.70
2023-04-04T17:40:19.644Z,13.00
2023-04-04T17:45:21.389Z,60.90
2023-04-04T17:50:23.088Z,150.20
2023-04-04T17:55:24.951Z,116.00
2023-04-04T18:00:27.253Z,137.30
2023-04-04T18:05:29.209Z,119.10
2023-04-04T18:10:31.660Z,112.30
2023-04-04T18:15:33.741Z,99.80
2023-04-04T18:20:36.555Z,142.80
2023-04-04T18:25:38.390Z,133.80
2023-04-04T18:30:40.266Z,126.20
2023-04-04T18:35:42.036Z,74.60
2023-04-04T18:40:46.497Z,219.20
2023-04-04T18:45:48.612Z,117.40
2023-04-04T18:50:51.585Z,118.80
2023-04-04T18:55:53.542Z,137.60
2023-04-04T19:00:58.580Z,126.90
2023-04-04T19:06:01.597Z,178.30
2023-04-04T19:11:03.308Z,199.70
2023-04-04T19:16:05.651Z,192.30
2023-04-04T19:21:08.826Z,124.70
2023-04-04T19:26:11.843Z,149.20
2023-04-04T19:31:21.617Z,185.90
2023-04-04T19:36:23.933Z,223.30
2023-04-04T19:41:39.961Z,177.90
2023-04-04T19:46:41.658Z,263.30
2023-04-04T19:51:48.933Z,310.40
2023-04-04T19:56:50.810Z,209.30
2023-04-04T20:02:00.251Z,216.80
2023-04-04T20:07:02.696Z,166.50
2023-04-04T20:12:07.237Z,138.60
2023-04-04T20:17:09.657Z,104.10
2023-04-04T20:22:11.617Z,59.40
2023-04-04T20:27:23.662Z,60.50
2023-04-04T20:32:25.298Z,84.30
2023-04-04T20:37:28.758Z,96.30
2023-04-04T20:42:37.887Z,159.00
2023-04-04T20:47:51.630Z,213.40
2023-04-04T20:53:02.055Z,247.90
2023-04-04T20:58:23.319Z,194.50
2023-04-04T21:03:25.171Z,176.80
2023-04-04T21:08:29.459Z,157.00
2023-04-04T21:13:41.710Z,123.30
2023-04-04T21:18:43.953Z,117.80
2023-04-04T21:23:47.074Z,112.70
2023-04-04T21:28:49.859Z,133.30
2023-04-04T21:33:56.149Z,125.30
2023-04-04T21:39:00.734Z,119.60
2023-04-04T21:44:10.270Z,192.40
2023-04-04T21:49:12.783Z,195.40
2023-04-04T21:54:15.443Z,188.50
2023-04-04T21:59:18.705Z,157.80
2023-04-04T22:04:20.390Z,184.40
2023-04-04T22:09:25.877Z,173.60
2023-04-04T22:14:30.501Z,139.10
2023-04-04T22:19:43.172Z,141.30
2023-04-04T22:24:44.918Z,150.00
2023-04-04T22:29:46.706Z,84.70
2023-04-04T22:34:48.938Z,145.70
2023-04-04T22:39:50.816Z,171.70
2023-04-04T22:44:52.573Z,192.80
2023-04-04T22:49:56.312Z,106.30
2023-04-04T22:54:59.648Z,90.00
2023-04-04T23:00:01.543Z,71.20
2023-04-04T23:05:04.025Z,93.60
2023-04-04T23:10:12.790Z,80.70
2023-04-04T23:15:19.270Z,76.90
2023-04-04T23:20:21.117Z,70.70
2023-04-04T23:25:28.429Z,115.20
2023-04-04T23:30:30.271Z,183.30
2023-04-04T23:35:37.775Z,184.00
2023-04-04T23:40:41.021Z,100.50
2023-04-04T23:45:43.525Z,109.20
2023-04-04T23:50:47.042Z,103.10
2023-04-04T23:55:49.178Z,99.40
